sensor_id;sensor_type;location;lat;lon;timestamp;temperature;humidity
51253;DHT22;38936;47.808;19.936;2022-09-09T00:04:19;19.30;99.90
51253;DHT22;38936;47.808;19.936;2022-09-09T00:09:31;19.30;99.90
51253;DHT22;38936;47.808;19.936;2022-09-09T00:12:09;19.30;99.90
51253;DHT22;38936;47.808;19.936;2022-09-09T00:14:56;19.30;99.90
51253;DHT22;38936;47.808;19.936;2022-09-09T00:17:31;19.30;99.90
51253;DHT22;38936;47.808;19.936;2022-09-09T00:20:16;19.30;99.90
51253;DHT22;38936;47.808;19.936;2022-09-09T00:23:16;19.30;99.90
51253;DHT22;38936;47.808;19.936;2022-09-09T00:26:14;19.20;99.90
51253;DHT22;38936;47.808;19.936;2022-09-09T00:31:29;19.20;99.90
51253;DHT22;38936;47.808;19.936;2022-09-09T00:33:58;19.20;99.90
51253;DHT22;38936;47.808;19.936;2022-09-09T00:36:27;19.20;99.90
51253;DHT22;38936;47.808;19.936;2022-09-09T00:39:00;19.30;99.90
51253;DHT22;38936;47.808;19.936;2022-09-09T00:57:32;19.00;99.90
51253;DHT22;38936;47.808;19.936;2022-09-09T01:00:21;19.00;99.90
51253;DHT22;38936;47.808;19.936;2022-09-09T01:02:54;19.00;99.90
51253;DHT22;38936;47.808;19.936;2022-09-09T01:07:58;18.90;99.90
51253;DHT22;38936;47.808;19.936;2022-09-09T01:10:52;18.90;99.90
51253;DHT22;38936;47.808;19.936;2022-09-09T01:13:25;18.90;99.90
51253;DHT22;38936;47.808;19.936;2022-09-09T01:15:53;18.90;99.90
51253;DHT22;38936;47.808;19.936;2022-09-09T01:18:27;18.80;99.90
51253;DHT22;38936;47.808;19.936;2022-09-09T01:23:44;18.80;99.90
51253;DHT22;38936;47.808;19.936;2022-09-09T01:28:49;18.80;99.90
51253;DHT22;38936;47.808;19.936;2022-09-09T01:31:31;18.80;99.90
51253;DHT22;38936;47.808;19.936;2022-09-09T01:33:58;18.80;99.90
51253;DHT22;38936;47.808;19.936;2022-09-09T01:36:37;18.80;99.90
51253;DHT22;38936;47.808;19.936;2022-09-09T01:39:04;18.80;99.90
51253;DHT22;38936;47.808;19.936;2022-09-09T01:41:30;18.80;99.90
51253;DHT22;38936;47.808;19.936;2022-09-09T01:43:56;18.80;99.90
51253;DHT22;38936;47.808;19.936;2022-09-09T01:46:23;18.70;99.90
51253;DHT22;38936;47.808;19.936;2022-09-09T01:48:51;18.70;99.90
51253;DHT22;38936;47.808;19.936;2022-09-09T01:51:17;18.70;99.90
51253;DHT22;38936;47.808;19.936;2022-09-09T01:53:44;18.70;99.90
51253;DHT22;38936;47.808;19.936;2022-09-09T02:06:57;18.70;99.90
51253;DHT22;38936;47.808;19.936;2022-09-09T02:09:26;18.70;99.90
51253;DHT22;38936;47.808;19.936;2022-09-09T02:12:11;18.70;99.90
51253;DHT22;38936;47.808;19.936;2022-09-09T02:14:52;18.70;99.90
51253;DHT22;38936;47.808;19.936;2022-09-09T02:17:27;18.60;99.90
51253;DHT22;38936;47.808;19.936;2022-09-09T02:19:59;18.50;99.90
51253;DHT22;38936;47.808;19.936;2022-09-09T02:22:28;18.50;99.90
51253;DHT22;38936;47.808;19.936;2022-09-09T02:24:57;18.40;99.90
51253;DHT22;38936;47.808;19.936;2022-09-09T02:27:24;18.50;99.90
51253;DHT22;38936;47.808;19.936;2022-09-09T02:29:51;18.40;99.90
51253;DHT22;38936;47.808;19.936;2022-09-09T02:32:21;18.40;99.90
51253;DHT22;38936;47.808;19.936;2022-09-09T02:34:54;18.30;99.90
51253;DHT22;38936;47.808;19.936;2022-09-09T02:37:24;18.20;99.90
51253;DHT22;38936;47.808;19.936;2022-09-09T02:39:54;18.20;99.90
51253;DHT22;38936;47.808;19.936;2022-09-09T02:42:19;18.10;99.90
51253;DHT22;38936;47.808;19.936;2022-09-09T02:44:45;18.10;99.90
51253;DHT22;38936;47.808;19.936;2022-09-09T02:47:30;18.10;99.90
51253;DHT22;38936;47.808;19.936;2022-09-09T02:55:43;18.10;99.90
51253;DHT22;38936;47.808;19.936;2022-09-09T02:58:12;18.10;99.90
51253;DHT22;38936;47.808;19.936;2022-09-09T03:00:39;18.00;99.90
51253;DHT22;38936;47.808;19.936;2022-09-09T03:03:06;17.90;99.90
51253;DHT22;38936;47.808;19.936;2022-09-09T03:05:33;17.90;99.90
51253;DHT22;38936;47.808;19.936;2022-09-09T03:07:58;17.80;99.90
51253;DHT22;38936;47.808;19.936;2022-09-09T03:10:24;17.80;99.90
51253;DHT22;38936;47.808;19.936;2022-09-09T03:12:50;17.80;99.90
51253;DHT22;38936;47.808;19.936;2022-09-09T03:15:16;17.70;99.90
51253;DHT22;38936;47.808;19.936;2022-09-09T03:17:42;17.70;99.90
51253;DHT22;38936;47.808;19.936;2022-09-09T03:20:07;17.70;99.90
51253;DHT22;38936;47.808;19.936;2022-09-09T03:22:34;17.70;99.90
51253;DHT22;38936;47.808;19.936;2022-09-09T03:25:00;17.70;99.90
51253;DHT22;38936;47.808;19.936;2022-09-09T03:27:28;17.70;99.90
51253;DHT22;38936;47.808;19.936;2022-09-09T03:29:54;17.60;99.90
51253;DHT22;38936;47.808;19.936;2022-09-09T03:32:20;17.60;99.90
51253;DHT22;38936;47.808;19.936;2022-09-09T03:34:48;17.60;99.90
51253;DHT22;38936;47.808;19.936;2022-09-09T03:37:16;17.60;99.90
51253;DHT22;38936;47.808;19.936;2022-09-09T03:39:43;17.50;99.90
51253;DHT22;38936;47.808;19.936;2022-09-09T03:42:08;17.50;99.90
51253;DHT22;38936;47.808;19.936;2022-09-09T03:44:34;17.50;99.90
51253;DHT22;38936;47.808;19.936;2022-09-09T03:46:59;17.50;99.90
51253;DHT22;38936;47.808;19.936;2022-09-09T03:49:26;17.50;99.90
51253;DHT22;38936;47.808;19.936;2022-09-09T03:51:55;17.50;99.90
51253;DHT22;38936;47.808;19.936;2022-09-09T03:54:22;17.40;99.90
51253;DHT22;38936;47.808;19.936;2022-09-09T03:56:48;17.40;99.90
51253;DHT22;38936;47.808;19.936;2022-09-09T03:59:13;17.40;99.90
51253;DHT22;38936;47.808;19.936;2022-09-09T04:01:39;17.30;99.90
51253;DHT22;38936;47.808;19.936;2022-09-09T04:04:05;17.30;99.90
51253;DHT22;38936;47.808;19.936;2022-09-09T04:06:31;17.30;99.90
51253;DHT22;38936;47.808;19.936;2022-09-09T04:08:56;17.30;99.90
51253;DHT22;38936;47.808;19.936;2022-09-09T04:11:22;17.30;99.90
51253;DHT22;38936;47.808;19.936;2022-09-09T04:13:48;17.30;99.90
51253;DHT22;38936;47.808;19.936;2022-09-09T04:16:14;17.20;99.90
51253;DHT22;38936;47.808;19.936;2022-09-09T04:18:40;17.30;99.90
51253;DHT22;38936;47.808;19.936;2022-09-09T04:21:06;17.30;99.90
51253;DHT22;38936;47.808;19.936;2022-09-09T04:23:33;17.30;99.90
51253;DHT22;38936;47.808;19.936;2022-09-09T04:26:00;17.30;99.90
51253;DHT22;38936;47.808;19.936;2022-09-09T04:28:29;17.30;99.90
51253;DHT22;38936;47.808;19.936;2022-09-09T04:30:55;17.30;99.90
51253;DHT22;38936;47.808;19.936;2022-09-09T04:33:23;17.30;99.90
51253;DHT22;38936;47.808;19.936;2022-09-09T04:35:52;17.40;99.90
51253;DHT22;38936;47.808;19.936;2022-09-09T04:38:19;17.40;99.90
51253;DHT22;38936;47.808;19.936;2022-09-09T04:40:49;17.40;99.90
51253;DHT22;38936;47.808;19.936;2022-09-09T04:43:16;17.40;99.90
51253;DHT22;38936;47.808;19.936;2022-09-09T04:45:42;17.40;99.90
51253;DHT22;38936;47.808;19.936;2022-09-09T04:48:08;17.40;99.90
51253;DHT22;38936;47.808;19.936;2022-09-09T04:50:35;17.40;99.90
51253;DHT22;38936;47.808;19.936;2022-09-09T04:53:04;17.50;99.90
51253;DHT22;38936;47.808;19.936;2022-09-09T04:55:31;17.50;99.90
51253;DHT22;38936;47.808;19.936;2022-09-09T04:57:56;17.50;99.90
51253;DHT22;38936;47.808;19.936;2022-09-09T05:00:23;17.50;99.90
51253;DHT22;38936;47.808;19.936;2022-09-09T05:02:49;17.60;99.90
51253;DHT22;38936;47.808;19.936;2022-09-09T05:05:16;17.70;99.90
51253;DHT22;38936;47.808;19.936;2022-09-09T05:07:42;17.70;99.90
51253;DHT22;38936;47.808;19.936;2022-09-09T05:10:09;17.90;99.90
51253;DHT22;38936;47.808;19.936;2022-09-09T05:12:35;18.00;99.90
51253;DHT22;38936;47.808;19.936;2022-09-09T05:15:01;18.00;99.90
51253;DHT22;38936;47.808;19.936;2022-09-09T05:17:27;18.10;99.90
51253;DHT22;38936;47.808;19.936;2022-09-09T05:19:53;18.10;99.90
51253;DHT22;38936;47.808;19.936;2022-09-09T05:22:22;18.10;99.90
51253;DHT22;38936;47.808;19.936;2022-09-09T05:24:49;18.20;99.90
51253;DHT22;38936;47.808;19.936;2022-09-09T05:27:17;18.30;99.90
51253;DHT22;38936;47.808;19.936;2022-09-09T05:29:45;18.40;99.90
51253;DHT22;38936;47.808;19.936;2022-09-09T05:32:11;18.40;99.90
51253;DHT22;38936;47.808;19.936;2022-09-09T05:34:37;18.40;99.90
51253;DHT22;38936;47.808;19.936;2022-09-09T05:37:03;18.50;99.90
51253;DHT22;38936;47.808;19.936;2022-09-09T05:39:29;18.50;99.90
51253;DHT22;38936;47.808;19.936;2022-09-09T05:41:55;18.50;99.90
51253;DHT22;38936;47.808;19.936;2022-09-09T05:44:21;18.60;99.90
51253;DHT22;38936;47.808;19.936;2022-09-09T05:46:48;18.60;99.90
51253;DHT22;38936;47.808;19.936;2022-09-09T05:49:15;18.70;99.90
51253;DHT22;38936;47.808;19.936;2022-09-09T05:51:41;18.70;99.90
51253;DHT22;38936;47.808;19.936;2022-09-09T05:54:08;18.80;99.90
51253;DHT22;38936;47.808;19.936;2022-09-09T05:56:34;18.80;99.90
51253;DHT22;38936;47.808;19.936;2022-09-09T05:58:59;18.90;99.90
51253;DHT22;38936;47.808;19.936;2022-09-09T06:01:28;18.90;99.90
51253;DHT22;38936;47.808;19.936;2022-09-09T06:03:55;19.00;99.90
51253;DHT22;38936;47.808;19.936;2022-09-09T06:06:25;19.10;99.90
51253;DHT22;38936;47.808;19.936;2022-09-09T06:08:53;19.20;99.90
51253;DHT22;38936;47.808;19.936;2022-09-09T06:11:31;19.30;99.90
51253;DHT22;38936;47.808;19.936;2022-09-09T06:13:57;19.40;99.90
51253;DHT22;38936;47.808;19.936;2022-09-09T06:16:25;19.40;99.90
51253;DHT22;38936;47.808;19.936;2022-09-09T06:18:52;19.50;99.90
51253;DHT22;38936;47.808;19.936;2022-09-09T06:21:24;19.50;99.90
51253;DHT22;38936;47.808;19.936;2022-09-09T06:23:51;19.60;99.90
51253;DHT22;38936;47.808;19.936;2022-09-09T06:26:21;19.60;99.90
51253;DHT22;38936;47.808;19.936;2022-09-09T06:28:48;19.70;99.90
51253;DHT22;38936;47.808;19.936;2022-09-09T06:31:17;19.70;99.90
51253;DHT22;38936;47.808;19.936;2022-09-09T06:33:43;19.80;99.90
51253;DHT22;38936;47.808;19.936;2022-09-09T06:36:14;19.90;99.90
51253;DHT22;38936;47.808;19.936;2022-09-09T06:38:41;20.10;99.90
51253;DHT22;38936;47.808;19.936;2022-09-09T06:41:09;20.10;99.90
51253;DHT22;38936;47.808;19.936;2022-09-09T06:43:35;20.20;99.90
51253;DHT22;38936;47.808;19.936;2022-09-09T06:46:07;20.30;99.90
51253;DHT22;38936;47.808;19.936;2022-09-09T06:48:33;20.50;99.90
51253;DHT22;38936;47.808;19.936;2022-09-09T06:53:37;20.90;99.90
51253;DHT22;38936;47.808;19.936;2022-09-09T06:58:42;21.30;99.90
51253;DHT22;38936;47.808;19.936;2022-09-09T07:01:14;21.50;99.90
51253;DHT22;38936;47.808;19.936;2022-09-09T07:03:41;21.80;99.90
51253;DHT22;38936;47.808;19.936;2022-09-09T07:06:14;22.10;99.90
51253;DHT22;38936;47.808;19.936;2022-09-09T07:08:42;22.30;99.90
51253;DHT22;38936;47.808;19.936;2022-09-09T07:11:09;22.30;99.90
51253;DHT22;38936;47.808;19.936;2022-09-09T07:13:35;22.20;99.90
51253;DHT22;38936;47.808;19.936;2022-09-09T07:16:12;22.20;99.90
51253;DHT22;38936;47.808;19.936;2022-09-09T07:18:39;22.40;99.90
51253;DHT22;38936;47.808;19.936;2022-09-09T07:21:04;22.50;99.90
51253;DHT22;38936;47.808;19.936;2022-09-09T07:23:32;22.70;99.90
51253;DHT22;38936;47.808;19.936;2022-09-09T07:25:58;23.20;99.90
51253;DHT22;38936;47.808;19.936;2022-09-09T07:28:25;23.70;99.90
51253;DHT22;38936;47.808;19.936;2022-09-09T07:30:59;24.10;99.90
51253;DHT22;38936;47.808;19.936;2022-09-09T07:33:28;24.20;99.90
51253;DHT22;38936;47.808;19.936;2022-09-09T07:36:05;24.40;99.90
51253;DHT22;38936;47.808;19.936;2022-09-09T07:38:37;24.30;99.90
51253;DHT22;38936;47.808;19.936;2022-09-09T07:41:05;24.20;99.90
51253;DHT22;38936;47.808;19.936;2022-09-09T07:43:31;24.60;99.90
51253;DHT22;38936;47.808;19.936;2022-09-09T07:46:00;25.50;99.90
51253;DHT22;38936;47.808;19.936;2022-09-09T07:48:29;26.50;99.90
51253;DHT22;38936;47.808;19.936;2022-09-09T07:51:16;27.20;99.90
51253;DHT22;38936;47.808;19.936;2022-09-09T07:53:43;27.50;99.90
51253;DHT22;38936;47.808;19.936;2022-09-09T07:56:15;27.20;99.90
51253;DHT22;38936;47.808;19.936;2022-09-09T07:58:44;26.80;99.90
51253;DHT22;38936;47.808;19.936;2022-09-09T08:01:15;26.20;99.90
51253;DHT22;38936;47.808;19.936;2022-09-09T08:03:44;25.70;99.90
51253;DHT22;38936;47.808;19.936;2022-09-09T08:06:10;25.20;99.90
51253;DHT22;38936;47.808;19.936;2022-09-09T08:08:38;24.70;99.90
51253;DHT22;38936;47.808;19.936;2022-09-09T08:11:07;24.30;99.90
51253;DHT22;38936;47.808;19.936;2022-09-09T08:13:36;23.80;99.90
51253;DHT22;38936;47.808;19.936;2022-09-09T08:16:10;23.50;99.90
51253;DHT22;38936;47.808;19.936;2022-09-09T08:18:36;23.40;99.90
51253;DHT22;38936;47.808;19.936;2022-09-09T08:21:14;23.30;99.90
51253;DHT22;38936;47.808;19.936;2022-09-09T08:23:43;23.30;99.90
51253;DHT22;38936;47.808;19.936;2022-09-09T08:28:41;23.30;99.90
51253;DHT22;38936;47.808;19.936;2022-09-09T08:33:32;23.40;99.90
51253;DHT22;38936;47.808;19.936;2022-09-09T08:35:59;23.50;99.90
51253;DHT22;38936;47.808;19.936;2022-09-09T08:38:24;23.60;99.90
51253;DHT22;38936;47.808;19.936;2022-09-09T08:40:52;23.80;99.90
51253;DHT22;38936;47.808;19.936;2022-09-09T08:43:20;24.10;99.90
51253;DHT22;38936;47.808;19.936;2022-09-09T08:45:50;24.50;99.90
51253;DHT22;38936;47.808;19.936;2022-09-09T08:48:39;24.70;99.90
51253;DHT22;38936;47.808;19.936;2022-09-09T08:51:07;24.90;99.90
51253;DHT22;38936;47.808;19.936;2022-09-09T08:53:52;24.90;99.90
51253;DHT22;38936;47.808;19.936;2022-09-09T08:56:21;24.70;99.90
51253;DHT22;38936;47.808;19.936;2022-09-09T08:58:54;24.80;99.90
51253;DHT22;38936;47.808;19.936;2022-09-09T09:07:11;25.30;99.90
51253;DHT22;38936;47.808;19.936;2022-09-09T09:09:53;25.80;99.90
51253;DHT22;38936;47.808;19.936;2022-09-09T09:12:27;26.20;99.90
51253;DHT22;38936;47.808;19.936;2022-09-09T09:14:54;26.70;99.90
51253;DHT22;38936;47.808;19.936;2022-09-09T09:17:24;28.00;99.90
51253;DHT22;38936;47.808;19.936;2022-09-09T09:19:50;28.50;99.90
51253;DHT22;38936;47.808;19.936;2022-09-09T09:25:19;28.20;99.90
51253;DHT22;38936;47.808;19.936;2022-09-09T09:28:07;28.30;99.90
51253;DHT22;38936;47.808;19.936;2022-09-09T09:33:35;28.10;99.90
51253;DHT22;38936;47.808;19.936;2022-09-09T09:36:06;27.60;99.90
51253;DHT22;38936;47.808;19.936;2022-09-09T09:38:33;27.20;99.90
51253;DHT22;38936;47.808;19.936;2022-09-09T09:40:59;26.40;99.90
51253;DHT22;38936;47.808;19.936;2022-09-09T09:43:31;26.00;99.90
51253;DHT22;38936;47.808;19.936;2022-09-09T09:45:57;26.20;99.90
51253;DHT22;38936;47.808;19.936;2022-09-09T09:48:25;27.00;99.90
51253;DHT22;38936;47.808;19.936;2022-09-09T09:51:03;27.30;99.90
51253;DHT22;38936;47.808;19.936;2022-09-09T09:53:34;28.00;99.90
51253;DHT22;38936;47.808;19.936;2022-09-09T09:56:11;29.10;99.50
51253;DHT22;38936;47.808;19.936;2022-09-09T09:58:50;30.40;97.70
51253;DHT22;38936;47.808;19.936;2022-09-09T10:01:26;31.40;94.20
51253;DHT22;38936;47.808;19.936;2022-09-09T10:03:55;31.80;93.00
51253;DHT22;38936;47.808;19.936;2022-09-09T10:06:33;32.00;93.40
51253;DHT22;38936;47.808;19.936;2022-09-09T10:09:01;32.60;90.30
51253;DHT22;38936;47.808;19.936;2022-09-09T10:14:23;33.10;87.90
51253;DHT22;38936;47.808;19.936;2022-09-09T10:17:04;33.50;85.30
51253;DHT22;38936;47.808;19.936;2022-09-09T10:19:35;33.20;80.60
51253;DHT22;38936;47.808;19.936;2022-09-09T10:25:03;31.00;85.60
51253;DHT22;38936;47.808;19.936;2022-09-09T10:33:24;29.40;88.90
51253;DHT22;38936;47.808;19.936;2022-09-09T10:36:19;28.80;91.20
51253;DHT22;38936;47.808;19.936;2022-09-09T10:38:47;28.70;92.60
51253;DHT22;38936;47.808;19.936;2022-09-09T10:41:26;28.70;92.10
51253;DHT22;38936;47.808;19.936;2022-09-09T10:44:10;28.50;92.40
51253;DHT22;38936;47.808;19.936;2022-09-09T10:47:12;27.80;94.20
51253;DHT22;38936;47.808;19.936;2022-09-09T10:50:29;27.40;96.60
51253;DHT22;38936;47.808;19.936;2022-09-09T10:55:20;26.90;97.10
51253;DHT22;38936;47.808;19.936;2022-09-09T10:57:52;26.80;97.50
51253;DHT22;38936;47.808;19.936;2022-09-09T11:00:21;26.70;97.70
51253;DHT22;38936;47.808;19.936;2022-09-09T11:03:00;26.60;98.30
51253;DHT22;38936;47.808;19.936;2022-09-09T11:05:45;26.70;98.60
51253;DHT22;38936;47.808;19.936;2022-09-09T11:08:18;26.80;99.30
51253;DHT22;38936;47.808;19.936;2022-09-09T11:21:47;26.30;99.90
51253;DHT22;38936;47.808;19.936;2022-09-09T11:24:22;26.40;99.90
51253;DHT22;38936;47.808;19.936;2022-09-09T11:27:03;26.40;99.90
51253;DHT22;38936;47.808;19.936;2022-09-09T11:38:27;26.70;99.70
51253;DHT22;38936;47.808;19.936;2022-09-09T11:40:59;26.80;99.20
51253;DHT22;38936;47.808;19.936;2022-09-09T11:43:39;26.80;99.10
51253;DHT22;38936;47.808;19.936;2022-09-09T11:46:05;26.80;99.60
51253;DHT22;38936;47.808;19.936;2022-09-09T11:48:34;26.90;99.70
51253;DHT22;38936;47.808;19.936;2022-09-09T11:51:07;26.90;99.70
51253;DHT22;38936;47.808;19.936;2022-09-09T11:53:35;26.90;99.80
51253;DHT22;38936;47.808;19.936;2022-09-09T11:56:11;27.00;99.70
51253;DHT22;38936;47.808;19.936;2022-09-09T11:58:43;27.00;98.60
51253;DHT22;38936;47.808;19.936;2022-09-09T12:01:34;26.90;97.60
51253;DHT22;38936;47.808;19.936;2022-09-09T12:09:51;26.90;98.10
51253;DHT22;38936;47.808;19.936;2022-09-09T12:12:26;26.90;97.30
51253;DHT22;38936;47.808;19.936;2022-09-09T12:17:24;27.00;98.20
51253;DHT22;38936;47.808;19.936;2022-09-09T12:20:50;27.00;96.70
51253;DHT22;38936;47.808;19.936;2022-09-09T12:31:20;26.80;96.10
51253;DHT22;38936;47.808;19.936;2022-09-09T12:33:20;26.80;97.30
51253;DHT22;38936;47.808;19.936;2022-09-09T12:35:57;26.80;97.20
51253;DHT22;38936;47.808;19.936;2022-09-09T12:38:35;26.90;98.70
51253;DHT22;38936;47.808;19.936;2022-09-09T12:41:01;27.00;98.50
51253;DHT22;38936;47.808;19.936;2022-09-09T12:43:28;27.20;98.10
51253;DHT22;38936;47.808;19.936;2022-09-09T12:45:57;27.20;97.70
51253;DHT22;38936;47.808;19.936;2022-09-09T12:48:35;27.30;97.60
51253;DHT22;38936;47.808;19.936;2022-09-09T12:51:02;27.30;97.30
51253;DHT22;38936;47.808;19.936;2022-09-09T12:53:36;27.30;97.50
51253;DHT22;38936;47.808;19.936;2022-09-09T12:56:05;27.40;97.40
51253;DHT22;38936;47.808;19.936;2022-09-09T12:58:33;27.40;97.00
51253;DHT22;38936;47.808;19.936;2022-09-09T13:01:01;27.40;97.30
51253;DHT22;38936;47.808;19.936;2022-09-09T13:03:28;27.50;97.30
51253;DHT22;38936;47.808;19.936;2022-09-09T13:05:58;27.60;96.10
51253;DHT22;38936;47.808;19.936;2022-09-09T13:08:25;27.60;95.80
51253;DHT22;38936;47.808;19.936;2022-09-09T13:13:27;27.60;96.30
51253;DHT22;38936;47.808;19.936;2022-09-09T13:15:57;27.70;96.20
51253;DHT22;38936;47.808;19.936;2022-09-09T13:18:28;27.70;95.20
51253;DHT22;38936;47.808;19.936;2022-09-09T13:20:54;27.50;95.20
51253;DHT22;38936;47.808;19.936;2022-09-09T13:23:26;27.40;96.30
51253;DHT22;38936;47.808;19.936;2022-09-09T13:25:58;27.30;96.30
51253;DHT22;38936;47.808;19.936;2022-09-09T13:28:26;27.30;95.20
51253;DHT22;38936;47.808;19.936;2022-09-09T13:31:05;27.20;95.60
51253;DHT22;38936;47.808;19.936;2022-09-09T13:33:45;27.30;95.10
51253;DHT22;38936;47.808;19.936;2022-09-09T13:36:12;27.40;95.70
51253;DHT22;38936;47.808;19.936;2022-09-09T13:41:29;27.40;95.10
51253;DHT22;38936;47.808;19.936;2022-09-09T13:43:56;27.20;95.00
51253;DHT22;38936;47.808;19.936;2022-09-09T13:46:41;27.10;94.90
51253;DHT22;38936;47.808;19.936;2022-09-09T13:54:06;27.30;95.10
51253;DHT22;38936;47.808;19.936;2022-09-09T13:56:34;27.40;95.00
51253;DHT22;38936;47.808;19.936;2022-09-09T13:59:01;27.40;94.60
51253;DHT22;38936;47.808;19.936;2022-09-09T14:01:27;27.30;94.10
51253;DHT22;38936;47.808;19.936;2022-09-09T14:03:53;27.20;94.80
51253;DHT22;38936;47.808;19.936;2022-09-09T14:06:19;27.10;95.20
51253;DHT22;38936;47.808;19.936;2022-09-09T14:08:48;27.10;94.20
51253;DHT22;38936;47.808;19.936;2022-09-09T14:11:14;26.90;94.70
51253;DHT22;38936;47.808;19.936;2022-09-09T14:13:40;26.80;94.70
51253;DHT22;38936;47.808;19.936;2022-09-09T14:16:06;26.70;94.90
51253;DHT22;38936;47.808;19.936;2022-09-09T14:18:31;26.70;95.10
51253;DHT22;38936;47.808;19.936;2022-09-09T14:20:57;26.80;94.30
51253;DHT22;38936;47.808;19.936;2022-09-09T14:23:23;26.80;94.40
51253;DHT22;38936;47.808;19.936;2022-09-09T14:25:50;26.80;93.90
51253;DHT22;38936;47.808;19.936;2022-09-09T14:28:16;26.90;94.20
51253;DHT22;38936;47.808;19.936;2022-09-09T14:30:43;26.90;94.70
51253;DHT22;38936;47.808;19.936;2022-09-09T14:33:11;26.70;94.00
51253;DHT22;38936;47.808;19.936;2022-09-09T14:35:37;26.60;94.20
51253;DHT22;38936;47.808;19.936;2022-09-09T14:38:04;26.50;93.90
51253;DHT22;38936;47.808;19.936;2022-09-09T14:40:30;26.50;94.40
51253;DHT22;38936;47.808;19.936;2022-09-09T14:42:56;26.50;94.40
51253;DHT22;38936;47.808;19.936;2022-09-09T14:45:25;26.50;94.90
51253;DHT22;38936;47.808;19.936;2022-09-09T14:47:52;26.60;94.90
51253;DHT22;38936;47.808;19.936;2022-09-09T14:50:36;26.60;93.70
51253;DHT22;38936;47.808;19.936;2022-09-09T14:53:05;26.40;93.70
51253;DHT22;38936;47.808;19.936;2022-09-09T14:55:31;26.30;94.30
51253;DHT22;38936;47.808;19.936;2022-09-09T14:57:56;26.20;94.20
51253;DHT22;38936;47.808;19.936;2022-09-09T15:00:22;26.20;94.00
51253;DHT22;38936;47.808;19.936;2022-09-09T15:02:48;26.20;94.20
51253;DHT22;38936;47.808;19.936;2022-09-09T15:05:17;26.40;93.50
51253;DHT22;38936;47.808;19.936;2022-09-09T15:07:42;26.30;93.60
51253;DHT22;38936;47.808;19.936;2022-09-09T15:10:08;26.30;94.30
51253;DHT22;38936;47.808;19.936;2022-09-09T15:12:34;26.30;94.50
51253;DHT22;38936;47.808;19.936;2022-09-09T15:15:00;26.20;98.90
51253;DHT22;38936;47.808;19.936;2022-09-09T15:17:26;26.00;99.90
51253;DHT22;38936;47.808;19.936;2022-09-09T15:19:52;25.70;99.90
51253;DHT22;38936;47.808;19.936;2022-09-09T15:22:18;25.40;99.90
51253;DHT22;38936;47.808;19.936;2022-09-09T15:24:44;25.30;99.90
51253;DHT22;38936;47.808;19.936;2022-09-09T15:27:10;25.10;99.90
51253;DHT22;38936;47.808;19.936;2022-09-09T15:29:35;24.90;99.90
51253;DHT22;38936;47.808;19.936;2022-09-09T15:32:01;24.90;99.90
51253;DHT22;38936;47.808;19.936;2022-09-09T15:34:27;24.70;99.90
51253;DHT22;38936;47.808;19.936;2022-09-09T15:36:52;24.80;99.90
51253;DHT22;38936;47.808;19.936;2022-09-09T15:39:20;24.80;99.90
51253;DHT22;38936;47.808;19.936;2022-09-09T15:41:48;24.70;99.90
51253;DHT22;38936;47.808;19.936;2022-09-09T15:44:14;24.50;99.90
51253;DHT22;38936;47.808;19.936;2022-09-09T15:46:52;24.40;99.90
51253;DHT22;38936;47.808;19.936;2022-09-09T15:49:21;24.30;99.90
51253;DHT22;38936;47.808;19.936;2022-09-09T15:51:58;24.20;99.90
51253;DHT22;38936;47.808;19.936;2022-09-09T15:54:27;24.10;99.90
51253;DHT22;38936;47.808;19.936;2022-09-09T15:56:58;24.10;99.90
51253;DHT22;38936;47.808;19.936;2022-09-09T15:59:25;23.90;99.90
51253;DHT22;38936;47.808;19.936;2022-09-09T16:01:51;23.90;99.90
51253;DHT22;38936;47.808;19.936;2022-09-09T16:04:18;23.80;99.90
51253;DHT22;38936;47.808;19.936;2022-09-09T16:06:53;23.70;99.90
51253;DHT22;38936;47.808;19.936;2022-09-09T16:09:19;23.60;99.90
51253;DHT22;38936;47.808;19.936;2022-09-09T16:11:45;23.50;99.90
51253;DHT22;38936;47.808;19.936;2022-09-09T16:14:13;23.50;99.90
51253;DHT22;38936;47.808;19.936;2022-09-09T16:16:38;23.50;99.90
51253;DHT22;38936;47.808;19.936;2022-09-09T16:19:09;23.30;99.90
51253;DHT22;38936;47.808;19.936;2022-09-09T16:21:41;23.30;99.90
51253;DHT22;38936;47.808;19.936;2022-09-09T16:24:09;23.30;99.90
51253;DHT22;38936;47.808;19.936;2022-09-09T16:26:37;23.20;99.90
51253;DHT22;38936;47.808;19.936;2022-09-09T16:29:04;23.20;99.90
51253;DHT22;38936;47.808;19.936;2022-09-09T16:31:30;23.10;99.90
51253;DHT22;38936;47.808;19.936;2022-09-09T16:33:57;23.00;99.90
51253;DHT22;38936;47.808;19.936;2022-09-09T16:36:25;22.90;99.90
51253;DHT22;38936;47.808;19.936;2022-09-09T16:38:58;22.90;99.90
51253;DHT22;38936;47.808;19.936;2022-09-09T16:41:25;22.80;99.90
51253;DHT22;38936;47.808;19.936;2022-09-09T16:43:57;22.70;99.90
51253;DHT22;38936;47.808;19.936;2022-09-09T16:46:25;22.60;99.90
51253;DHT22;38936;47.808;19.936;2022-09-09T16:48:53;22.60;99.90
51253;DHT22;38936;47.808;19.936;2022-09-09T16:53:45;22.60;99.90
51253;DHT22;38936;47.808;19.936;2022-09-09T16:56:17;22.60;99.90
51253;DHT22;38936;47.808;19.936;2022-09-09T16:58:51;22.60;99.90
51253;DHT22;38936;47.808;19.936;2022-09-09T17:01:17;22.60;99.90
51253;DHT22;38936;47.808;19.936;2022-09-09T17:03:43;22.50;99.90
51253;DHT22;38936;47.808;19.936;2022-09-09T17:06:13;22.40;99.90
51253;DHT22;38936;47.808;19.936;2022-09-09T17:08:40;22.40;99.90
51253;DHT22;38936;47.808;19.936;2022-09-09T17:11:14;22.40;99.90
51253;DHT22;38936;47.808;19.936;2022-09-09T17:13:42;22.30;99.90
51253;DHT22;38936;47.808;19.936;2022-09-09T17:16:08;22.20;99.90
51253;DHT22;38936;47.808;19.936;2022-09-09T17:18:34;22.20;99.90
51253;DHT22;38936;47.808;19.936;2022-09-09T17:21:05;22.10;99.90
51253;DHT22;38936;47.808;19.936;2022-09-09T17:23:32;21.90;99.90
51253;DHT22;38936;47.808;19.936;2022-09-09T17:25:59;21.90;99.90
51253;DHT22;38936;47.808;19.936;2022-09-09T17:28:26;22.00;99.90
51253;DHT22;38936;47.808;19.936;2022-09-09T17:30:57;21.90;99.90
51253;DHT22;38936;47.808;19.936;2022-09-09T17:33:23;21.90;99.90
51253;DHT22;38936;47.808;19.936;2022-09-09T17:35:51;21.90;99.90
51253;DHT22;38936;47.808;19.936;2022-09-09T17:38:17;21.90;99.90
51253;DHT22;38936;47.808;19.936;2022-09-09T17:40:43;21.80;99.90
51253;DHT22;38936;47.808;19.936;2022-09-09T17:43:08;21.70;99.90
51253;DHT22;38936;47.808;19.936;2022-09-09T17:45:34;21.80;99.90